Time;durP1;ratioP1;P1;durP2;ratioP2;P2;SDS_P1;SDS_P2;PMS_P1;PMS_P2;Temp;Humidity;BMP_temperature;BMP_pressure;BME280_temperature;BME280_humidity;BME280_pressure;Samples;Min_cycle;Max_cycle;Signal;HPM_P1;HPM_P2
2021/05/06 00:01:06;;;;;;;0.70;0.70;;;;;;;5.02;68.62;96517.47;29373;207;63009;-57
2021/05/06 00:03:01;;;;;;;0.70;0.70;;;;;;;5.00;68.97;96516.09;29373;274;63009;-57
2021/05/06 00:04:17;;;;;;;0.70;0.70;;;;;;;5.04;69.61;96519.88;29373;204;63005;-57
2021/05/06 00:06:02;;;;;;;0.70;0.70;;;;;;;5.05;68.75;96516.13;29417;281;63004;-57
2021/05/06 00:08:13;;;;;;;0.60;0.60;;;;;;;5.00;69.25;96521.50;29373;205;63009;-57
2021/05/06 00:09:38;;;;;;;0.60;0.60;;;;;;;4.96;69.25;96517.72;29373;216;63005;-61
2021/05/06 00:30:39;;;;;;;0.60;0.60;;;;;;;4.91;70.84;96494.31;29395;214;63009;-57
2021/05/06 00:32:08;;;;;;;0.60;0.60;;;;;;;4.98;70.50;96483.31;29400;336;63009;-57
2021/05/06 00:32:42;;;;;;;0.60;0.60;;;;;;;4.94;71.33;96484.91;29395;307;63005;-56
2021/05/06 00:33:14;;;;;;;0.62;0.62;;;;;;;4.90;71.45;96491.88;29373;200;63009;-57
2021/05/06 00:33:45;;;;;;;0.60;0.60;;;;;;;4.85;71.78;96486.53;29373;220;63004;-57
2021/05/06 00:34:16;;;;;;;0.60;0.60;;;;;;;4.84;71.54;96495.66;29371;313;64009;-56
2021/05/06 00:34:47;;;;;;;0.60;0.60;;;;;;;4.82;71.43;96481.69;29373;202;63004;-57
2021/05/06 00:35:18;;;;;;;0.60;0.60;;;;;;;4.81;71.55;96488.13;29373;268;63009;-57
2021/05/06 00:35:50;;;;;;;0.60;0.60;;;;;;;4.82;71.75;96479.00;29373;202;63004;-56
2021/05/06 00:36:21;;;;;;;0.60;0.60;;;;;;;4.80;72.05;96481.94;29373;229;63009;-57
2021/05/06 00:36:53;;;;;;;0.60;0.60;;;;;;;4.76;72.32;96485.44;29373;252;63018;-57
2021/05/06 00:37:24;;;;;;;0.60;0.60;;;;;;;4.70;72.24;96477.34;29373;209;63009;-56
2021/05/06 00:38:00;;;;;;;0.70;0.70;;;;;;;4.71;72.28;96472.78;29371;332;64005;-56
2021/05/06 00:39:42;;;;;;;0.60;0.60;;;;;;;4.72;72.15;96483.25;29373;199;63005;-57
2021/05/06 00:40:16;;;;;;;0.70;0.70;;;;;;;4.73;72.32;96481.38;29371;226;64009;-57
2021/05/06 00:41:12;;;;;;;0.60;0.60;;;;;;;4.75;72.00;96473.88;29373;268;63004;-56
2021/05/06 00:41:56;;;;;;;0.70;0.70;;;;;;;4.71;72.34;96468.22;29373;284;63009;-57
2021/05/06 00:42:42;;;;;;;0.70;0.70;;;;;;;4.71;72.43;96472.78;29373;247;63004;-57
2021/05/06 00:45:02;;;;;;;0.70;0.70;;;;;;;4.67;73.37;96475.19;29371;224;64005;-57
2021/05/06 00:46:05;;;;;;;0.65;0.65;;;;;;;4.69;72.92;96473.03;29373;263;63009;-57
2021/05/06 00:46:53;;;;;;;0.70;0.70;;;;;;;4.71;72.14;96465.53;29373;358;63005;-57
2021/05/06 00:55:20;;;;;;;0.60;0.60;;;;;;;4.62;73.68;96469.00;29373;305;63004;-56
2021/05/06 01:05:53;;;;;;;0.70;0.70;;;;;;;4.69;72.15;96454.22;29373;202;63009;-57
2021/05/06 01:06:26;;;;;;;0.60;0.60;;;;;;;4.67;72.23;96459.06;29373;204;63005;-56
2021/05/06 01:08:01;;;;;;;0.60;0.60;;;;;;;4.61;73.13;96454.75;29373;216;63005;-57
2021/05/06 01:08:38;;;;;;;0.60;0.60;;;;;;;4.57;73.19;96455.53;29373;237;63009;-58
2021/05/06 01:09:12;;;;;;;0.70;0.70;;;;;;;4.52;73.55;96452.81;29373;220;63005;-57
2021/05/06 01:09:50;;;;;;;0.68;0.68;;;;;;;4.52;73.55;96452.81;29373;222;63009;-56
2021/05/06 01:10:42;;;;;;;0.68;0.68;;;;;;;4.48;74.23;96455.25;29373;208;63004;-57
2021/05/06 01:11:29;;;;;;;0.60;0.60;;;;;;;4.52;73.72;96452.81;29373;223;63004;-57
2021/05/06 01:12:02;;;;;;;0.70;0.70;;;;;;;4.53;73.62;96460.62;29371;225;64004;-57
2021/05/06 01:12:34;;;;;;;0.60;0.60;;;;;;;4.55;73.44;96453.09;29373;256;63008;-58
2021/05/06 01:13:06;;;;;;;0.60;0.60;;;;;;;4.59;73.30;96459.56;29373;206;63004;-57
2021/05/06 01:13:39;;;;;;;0.60;0.60;;;;;;;4.57;73.75;96456.34;29373;202;63009;-57
2021/05/06 01:14:11;;;;;;;0.60;0.60;;;;;;;4.54;73.67;96456.87;29373;250;63005;-57
2021/05/06 01:14:42;;;;;;;0.70;0.70;;;;;;;4.60;73.49;96460.38;29373;223;63009;-57
2021/05/06 01:15:17;;;;;;;0.60;0.60;;;;;;;4.49;73.67;96459.56;29373;244;63005;-56
2021/05/06 01:15:48;;;;;;;0.60;0.60;;;;;;;4.46;74.02;96460.09;29373;218;63009;-56
2021/05/06 01:16:20;;;;;;;0.60;0.60;;;;;;;4.42;73.80;96452.81;29373;202;63005;-57
2021/05/06 01:16:51;;;;;;;0.60;0.60;;;;;;;4.47;74.01;96458.22;29373;240;63009;-56
2021/05/06 01:17:22;;;;;;;0.70;0.70;;;;;;;4.50;74.21;96455.81;29371;216;64004;-57
2021/05/06 01:17:55;;;;;;;0.70;0.70;;;;;;;4.48;74.04;96460.62;29373;225;63009;-57
2021/05/06 01:18:31;;;;;;;0.60;0.60;;;;;;;4.49;73.84;96464.94;29373;222;63004;-57
2021/05/06 01:19:05;;;;;;;0.60;0.60;;;;;;;4.50;74.06;96463.87;29373;262;63004;-56
2021/05/06 01:19:36;;;;;;;0.60;0.60;;;;;;;4.48;73.86;96463.31;29373;197;63004;-57
2021/05/06 01:20:09;;;;;;;0.70;0.70;;;;;;;4.47;74.27;96466.28;29373;302;63008;-57
2021/05/06 01:20:55;;;;;;;0.60;0.60;;;;;;;4.46;74.10;96454.72;29373;202;63004;-56
2021/05/06 01:21:26;;;;;;;0.60;0.60;;;;;;;4.52;73.74;96458.19;29373;220;63009;-56
2021/05/06 01:22:15;;;;;;;0.60;0.60;;;;;;;4.51;73.95;96460.09;29371;210;64005;-56
2021/05/06 01:22:47;;;;;;;0.60;0.60;;;;;;;4.48;74.27;96452.56;29373;215;63009;-56
2021/05/06 01:23:19;;;;;;;0.60;0.60;;;;;;;4.42;74.58;96455.50;29372;211;64005;-57
2021/05/06 01:23:52;;;;;;;0.60;0.60;;;;;;;4.40;74.18;96455.78;29373;257;63009;-57
2021/05/06 01:24:25;;;;;;;0.60;0.60;;;;;;;4.39;74.45;96462.22;29373;247;63005;-58
2021/05/06 01:24:58;;;;;;;0.60;0.60;;;;;;;4.41;74.72;96457.37;29373;292;63009;-58
2021/05/06 01:25:29;;;;;;;0.60;0.60;;;;;;;4.39;74.59;96464.91;29373;202;63004;-56
2021/05/06 01:26:17;;;;;;;0.60;0.60;;;;;;;4.47;73.77;96456.34;29373;271;63009;-56
2021/05/06 01:26:58;;;;;;;0.60;0.60;;;;;;;4.55;73.27;96452.31;29373;285;63004;-57
2021/05/06 01:27:56;;;;;;;0.60;0.60;;;;;;;4.56;73.39;96453.91;29393;208;64008;-57
2021/05/06 01:28:32;;;;;;;0.60;0.60;;;;;;;4.57;73.43;96456.34;29395;200;63005;-54
2021/05/06 01:29:11;;;;;;;0.60;0.60;;;;;;;4.56;73.48;96465.47;29373;224;63009;-57
2021/05/06 01:30:49;;;;;;;0.70;0.70;;;;;;;4.56;73.77;96465.47;29373;265;63023;-57
2021/05/06 01:31:24;;;;;;;0.70;0.70;;;;;;;4.55;73.86;96463.06;29373;210;63005;-56
2021/05/06 01:32:11;;;;;;;0.70;0.70;;;;;;;4.53;74.09;96460.62;29373;232;63009;-56
2021/05/06 01:32:50;;;;;;;0.60;0.60;;;;;;;4.52;74.23;96464.37;29371;211;64004;-56
2021/05/06 01:34:19;;;;;;;0.60;0.60;;;;;;;4.48;74.43;96463.31;29395;210;63004;-57
2021/05/06 01:35:00;;;;;;;0.60;0.60;;;;;;;4.49;74.29;96461.44;29395;212;63009;-57
2021/05/06 01:35:51;;;;;;;0.70;0.70;;;;;;;4.48;74.06;96460.62;29395;226;63004;-57
2021/05/06 01:36:32;;;;;;;0.70;0.70;;;;;;;4.46;73.93;96464.66;29417;202;63005;-57
2021/05/06 01:37:12;;;;;;;0.70;0.70;;;;;;;4.49;73.89;96464.13;29395;229;63005;-57
2021/05/06 01:38:07;;;;;;;0.70;0.70;;;;;;;4.52;73.64;96461.69;29416;259;64009;-57
2021/05/06 01:41:03;;;;;;;0.70;0.70;;;;;;;4.60;73.36;96453.12;29373;222;63004;-57
2021/05/06 01:42:37;;;;;;;0.60;0.60;;;;;;;4.75;72.21;96457.75;29373;272;63007;-57
2021/05/06 01:44:09;;;;;;;0.70;0.70;;;;;;;4.70;72.41;96453.16;29395;258;63005;-57
2021/05/06 01:45:17;;;;;;;0.70;0.70;;;;;;;4.76;71.85;96463.91;29393;211;64009;-57
2021/05/06 01:50:39;;;;;;;0.60;0.60;;;;;;;5.04;69.88;96461.53;29373;204;63008;-60
2021/05/06 01:57:39;;;;;;;0.70;0.70;;;;;;;4.97;70.65;96457.50;29371;298;64008;-56
2021/05/06 02:00:18;;;;;;;0.70;0.70;;;;;;;5.14;69.13;96455.38;29373;216;63017;-57
2021/05/06 02:01:41;;;;;;;0.70;0.70;;;;;;;5.18;68.98;96451.06;29395;218;63018;-57
2021/05/06 02:02:12;;;;;;;0.60;0.60;;;;;;;5.20;69.10;96446.19;29394;295;64009;-57
2021/05/06 02:02:44;;;;;;;0.60;0.60;;;;;;;5.18;69.15;96451.06;29373;215;63004;-56
2021/05/06 02:03:15;;;;;;;0.60;0.60;;;;;;;5.12;69.11;96441.37;29373;260;63009;-54
2021/05/06 02:03:46;;;;;;;0.60;0.60;;;;;;;5.10;69.25;96448.91;29372;224;63004;-56
2021/05/06 02:04:18;;;;;;;0.60;0.60;;;;;;;5.12;69.20;96452.13;29373;208;63009;-57
2021/05/06 02:04:49;;;;;;;0.60;0.60;;;;;;;5.11;69.38;96439.75;29373;206;63004;-57
2021/05/06 02:05:20;;;;;;;0.60;0.60;;;;;;;5.16;68.99;96442.44;29373;280;63009;-55
2021/05/06 02:05:51;;;;;;;0.60;0.60;;;;;;;5.16;69.04;96437.06;29373;213;63005;-57
2021/05/06 02:06:22;;;;;;;0.60;0.60;;;;;;;5.12;69.44;96444.06;29373;197;63009;-57
2021/05/06 02:06:53;;;;;;;0.60;0.60;;;;;;;5.16;69.40;96437.06;29373;291;63005;-58
2021/05/06 02:07:24;;;;;;;0.60;0.60;;;;;;;5.17;68.85;96444.06;29371;252;64009;-56
2021/05/06 02:07:56;;;;;;;0.60;0.60;;;;;;;5.12;69.83;96441.37;29373;267;63005;-57
2021/05/06 02:08:29;;;;;;;0.70;0.70;;;;;;;5.12;69.71;96444.06;29373;239;63009;-57
2021/05/06 02:09:00;;;;;;;0.60;0.60;;;;;;;5.15;69.42;96443.53;29373;263;63005;-57
2021/05/06 02:09:31;;;;;;;0.62;0.62;;;;;;;5.19;69.08;96447.31;29373;222;63009;-59
2021/05/06 02:10:09;;;;;;;0.60;0.60;;;;;;;5.24;68.59;96444.59;29373;210;63004;-56
2021/05/06 02:10:40;;;;;;;0.60;0.60;;;;;;;5.20;68.79;96446.19;29373;199;63009;-56
2021/05/06 02:11:12;;;;;;;0.60;0.60;;;;;;;5.17;69.23;96441.37;29373;224;63004;-57
2021/05/06 02:11:43;;;;;;;0.60;0.60;;;;;;;5.09;69.48;96446.47;29373;206;63009;-56
2021/05/06 02:12:16;;;;;;;0.60;0.60;;;;;;;5.06;69.74;96445.12;29373;290;63004;-56
2021/05/06 02:12:47;;;;;;;0.60;0.60;;;;;;;5.04;70.03;96442.72;29371;248;64009;-57
2021/05/06 02:13:18;;;;;;;0.60;0.60;;;;;;;5.03;70.25;96434.91;29373;301;63005;-55
2021/05/06 02:13:52;;;;;;;0.68;0.68;;;;;;;5.01;70.01;96439.75;29373;225;63009;-57
2021/05/06 02:14:24;;;;;;;0.60;0.60;;;;;;;4.99;70.34;96441.91;29371;252;64005;-56
2021/05/06 02:15:00;;;;;;;0.60;0.60;;;;;;;5.02;70.16;96449.44;29373;256;63009;-57
2021/05/06 02:15:38;;;;;;;0.60;0.60;;;;;;;5.07;69.74;96446.75;29373;262;63005;-56
2021/05/06 02:16:17;;;;;;;0.60;0.60;;;;;;;5.16;69.29;96442.44;29373;231;63009;-57
2021/05/06 02:16:48;;;;;;;0.60;0.60;;;;;;;5.18;69.19;96439.50;29373;308;63005;-57
2021/05/06 02:17:20;;;;;;;0.60;0.60;;;;;;;5.16;69.38;96431.69;29373;352;63009;-57
2021/05/06 02:17:52;;;;;;;0.60;0.60;;;;;;;5.13;69.76;96432.22;29373;202;63004;-56
2021/05/06 02:18:25;;;;;;;0.60;0.60;;;;;;;5.10;70.05;96431.97;29373;220;63009;-56
2021/05/06 02:18:57;;;;;;;0.60;0.60;;;;;;;5.07;70.22;96440.56;29373;255;63004;-57
2021/05/06 02:19:35;;;;;;;0.60;0.60;;;;;;;5.05;70.32;96435.44;29371;200;64008;-57
2021/05/06 02:20:08;;;;;;;0.60;0.60;;;;;;;5.03;70.59;96432.22;29373;196;63004;-57
2021/05/06 02:20:40;;;;;;;0.60;0.60;;;;;;;5.06;69.95;96431.69;29373;193;63009;-56
2021/05/06 02:21:17;;;;;;;0.60;0.60;;;;;;;5.07;70.32;96422.53;29373;321;63005;-56
2021/05/06 02:21:48;;;;;;;0.60;0.60;;;;;;;5.06;70.13;96429.00;29373;285;63009;-56
2021/05/06 02:22:21;;;;;;;0.60;0.60;;;;;;;5.01;70.39;96423.63;29373;281;63005;-58
2021/05/06 02:22:52;;;;;;;0.60;0.60;;;;;;;5.06;70.16;96426.31;29373;351;63009;-57
2021/05/06 02:23:24;;;;;;;0.60;0.60;;;;;;;5.04;70.02;96429.25;29373;311;63005;-56
2021/05/06 02:23:55;;;;;;;0.60;0.60;;;;;;;5.03;69.87;96429.53;29373;252;63009;-56
2021/05/06 02:24:28;;;;;;;0.60;0.60;;;;;;;5.04;70.31;96428.47;29373;362;63004;-56
2021/05/06 02:25:00;;;;;;;0.60;0.60;;;;;;;5.06;70.30;96426.31;29371;205;64002;-63
2021/05/06 02:25:31;;;;;;;0.50;0.50;;;;;;;5.09;69.83;96420.41;29373;234;63004;-57
2021/05/06 02:26:03;;;;;;;0.60;0.60;;;;;;;5.07;69.84;96422.53;29373;357;63009;-57
2021/05/06 02:26:35;;;;;;;0.60;0.60;;;;;;;5.06;69.92;96420.94;29373;350;63004;-57
2021/05/06 02:27:06;;;;;;;0.60;0.60;;;;;;;5.05;70.29;96419.31;29373;211;63004;-57
2021/05/06 02:27:38;;;;;;;0.60;0.60;;;;;;;5.02;70.65;96425.22;29373;289;63004;-56
2021/05/06 02:28:10;;;;;;;0.60;0.60;;;;;;;4.99;70.72;96415.00;29373;303;63009;-57
2021/05/06 02:28:41;;;;;;;0.60;0.60;;;;;;;4.98;70.81;96419.56;29373;197;63005;-56
2021/05/06 02:29:12;;;;;;;0.70;0.70;;;;;;;4.97;71.02;96425.22;29373;214;63009;-57
2021/05/06 02:29:44;;;;;;;0.50;0.50;;;;;;;4.95;70.77;96420.13;29371;229;64005;-56
2021/05/06 02:30:16;;;;;;;0.60;0.60;;;;;;;4.95;70.94;96413.94;29373;360;63009;-57
2021/05/06 02:30:48;;;;;;;0.62;0.62;;;;;;;4.93;70.99;96416.06;29373;258;63005;-57
2021/05/06 02:31:21;;;;;;;0.60;0.60;;;;;;;4.92;70.68;96407.22;29373;280;63009;-54
2021/05/06 02:31:52;;;;;;;0.60;0.60;;;;;;;4.92;70.70;96415.28;29373;202;63005;-57
2021/05/06 02:32:23;;;;;;;0.60;0.60;;;;;;;4.90;70.84;96412.03;29373;281;63009;-56
2021/05/06 02:32:54;;;;;;;0.52;0.52;;;;;;;4.91;70.92;96410.16;29373;197;63004;-57
2021/05/06 02:33:26;;;;;;;0.60;0.60;;;;;;;4.92;70.87;96414.47;29373;250;63009;-57
2021/05/06 02:33:57;;;;;;;0.60;0.60;;;;;;;4.96;71.13;96416.34;29373;311;63004;-57
2021/05/06 02:34:29;;;;;;;0.60;0.60;;;;;;;4.98;70.68;96413.41;29371;252;64009;-56
2021/05/06 02:35:01;;;;;;;0.60;0.60;;;;;;;4.99;70.80;96415.00;29373;288;63004;-57
2021/05/06 02:35:33;;;;;;;0.60;0.60;;;;;;;4.99;70.44;96420.38;29373;283;63009;-56
2021/05/06 02:36:05;;;;;;;0.60;0.60;;;;;;;4.98;71.10;96408.03;29373;212;63005;-56
2021/05/06 02:36:36;;;;;;;0.60;0.60;;;;;;;4.98;70.74;96408.03;29373;304;63009;-58
2021/05/06 02:37:09;;;;;;;0.60;0.60;;;;;;;4.96;70.48;96410.97;29373;235;63005;-54
2021/05/06 02:37:40;;;;;;;0.60;0.60;;;;;;;4.97;70.50;96407.22;29373;319;63009;-57
2021/05/06 02:38:12;;;;;;;0.55;0.55;;;;;;;4.97;70.52;96407.22;29373;264;63005;-56
2021/05/06 02:38:43;;;;;;;0.60;0.60;;;;;;;4.97;70.62;96406.41;29373;233;63009;-57
2021/05/06 02:39:14;;;;;;;0.60;0.60;;;;;;;4.95;70.76;96412.03;29373;323;63005;-57
2021/05/06 02:39:46;;;;;;;0.60;0.60;;;;;;;4.95;71.03;96411.25;29371;198;64001;-57
2021/05/06 02:40:17;;;;;;;0.60;0.60;;;;;;;4.93;70.92;96411.50;29373;330;63004;-57
2021/05/06 02:40:52;;;;;;;0.52;0.52;;;;;;;4.96;70.55;96410.97;29373;214;63009;-57
2021/05/06 02:41:23;;;;;;;0.60;0.60;;;;;;;4.97;70.41;96409.09;29373;218;63004;-57
2021/05/06 02:41:54;;;;;;;0.60;0.60;;;;;;;4.98;70.41;96416.09;29373;371;63009;-57
2021/05/06 02:42:25;;;;;;;0.50;0.50;;;;;;;5.00;70.20;96416.63;29373;270;63004;-57
2021/05/06 02:42:56;;;;;;;0.60;0.60;;;;;;;5.03;70.23;96410.72;29395;214;63009;-56
2021/05/06 02:43:27;;;;;;;0.60;0.60;;;;;;;5.04;69.88;96412.31;29373;217;63005;-57
2021/05/06 02:44:02;;;;;;;0.60;0.60;;;;;;;5.04;69.82;96417.69;29372;269;63009;-57
2021/05/06 02:44:35;;;;;;;0.60;0.60;;;;;;;5.02;69.92;96419.84;29373;430;63005;-57
2021/05/06 02:45:10;;;;;;;0.60;0.60;;;;;;;4.99;70.07;96415.00;29371;208;64009;-57
2021/05/06 02:45:41;;;;;;;0.60;0.60;;;;;;;4.97;70.91;96411.78;29373;336;63005;-57
2021/05/06 02:46:16;;;;;;;0.60;0.60;;;;;;;4.95;70.31;96412.03;29373;237;63009;-57
2021/05/06 02:46:47;;;;;;;0.60;0.60;;;;;;;4.96;70.46;96415.53;29373;212;63005;-57
2021/05/06 02:47:18;;;;;;;0.60;0.60;;;;;;;4.93;70.56;96410.69;29373;312;63009;-56
2021/05/06 02:47:50;;;;;;;0.60;0.60;;;;;;;4.89;71.39;96412.31;29373;356;63004;-57
2021/05/06 02:48:21;;;;;;;0.60;0.60;;;;;;;4.90;70.58;96416.63;29373;236;63009;-57
2021/05/06 02:48:53;;;;;;;0.60;0.60;;;;;;;4.89;71.23;96405.06;29395;202;63004;-57
2021/05/06 02:49:24;;;;;;;0.60;0.60;;;;;;;4.89;70.98;96409.63;29395;203;63009;-57
2021/05/06 02:49:56;;;;;;;0.60;0.60;;;;;;;4.97;70.24;96409.91;29395;358;63004;-54
2021/05/06 02:50:27;;;;;;;0.60;0.60;;;;;;;5.01;70.28;96407.47;29371;210;64009;-54
2021/05/06 02:51:01;;;;;;;0.60;0.60;;;;;;;5.00;69.99;96406.69;29372;306;63005;-57
2021/05/06 02:51:40;;;;;;;0.60;0.60;;;;;;;4.99;70.40;96406.94;29373;368;63009;-58
2021/05/06 02:52:31;;;;;;;0.60;0.60;;;;;;;5.05;70.36;96413.94;29373;216;63005;-57
2021/05/06 02:53:13;;;;;;;0.60;0.60;;;;;;;5.04;69.69;96407.75;29373;238;63009;-56
2021/05/06 02:53:53;;;;;;;0.60;0.60;;;;;;;5.02;70.39;96406.41;29373;287;63005;-57
2021/05/06 02:54:24;;;;;;;0.60;0.60;;;;;;;5.00;70.13;96409.38;29373;326;63009;-57
2021/05/06 02:55:11;;;;;;;0.60;0.60;;;;;;;4.99;70.50;96407.75;29373;202;63004;-57
2021/05/06 02:57:54;;;;;;;0.63;0.63;;;;;;;4.85;71.36;96408.56;29395;199;63014;-56
2021/05/06 03:02:42;;;;;;;0.60;0.60;;;;;;;4.80;72.12;96417.44;29373;281;63009;-57
2021/05/06 03:02:49;;;;;;;0.60;0.60;;;;;;;4.83;72.22;96424.16;29373;265;63009;-57
2021/05/06 03:03:21;;;;;;;0.60;0.60;;;;;;;4.84;72.24;96417.72;29373;202;63004;-57
2021/05/06 03:03:53;;;;;;;0.60;0.60;;;;;;;4.88;72.43;96418.75;29373;319;63008;-56
2021/05/06 03:04:25;;;;;;;0.60;0.60;;;;;;;4.86;72.75;96423.59;29373;347;63004;-57
2021/05/06 03:04:56;;;;;;;0.60;0.60;;;;;;;4.93;72.14;96411.50;29373;326;63009;-59
2021/05/06 03:05:32;;;;;;;0.60;0.60;;;;;;;4.92;72.08;96414.47;29373;210;63005;-57
2021/05/06 03:06:04;;;;;;;0.60;0.60;;;;;;;4.91;71.87;96410.97;29373;232;63009;-56
2021/05/06 03:06:46;;;;;;;0.60;0.60;;;;;;;4.90;72.08;96419.31;29371;308;64005;-56
2021/05/06 03:07:22;;;;;;;0.60;0.60;;;;;;;4.87;72.35;96428.69;29373;197;63009;-54
2021/05/06 03:08:06;;;;;;;0.60;0.60;;;;;;;4.90;72.15;96427.37;29373;349;63009;-61
2021/05/06 03:08:41;;;;;;;0.62;0.62;;;;;;;4.96;70.88;96404.78;29373;209;63009;-57
2021/05/06 03:10:38;;;;;;;0.60;0.60;;;;;;;5.01;71.55;96418.25;29373;263;63009;-57
2021/05/06 03:11:26;;;;;;;0.60;0.60;;;;;;;5.10;70.63;96422.00;29373;292;63004;-58
2021/05/06 03:15:08;;;;;;;0.60;0.60;;;;;;;5.05;70.77;96420.13;29395;196;63011;-57
2021/05/06 03:22:41;;;;;;;0.60;0.60;;;;;;;5.09;71.94;96435.72;29371;220;64005;-57
2021/05/06 03:23:18;;;;;;;0.62;0.62;;;;;;;4.94;72.54;96433.81;29373;278;63005;-63
2021/05/06 03:23:51;;;;;;;0.60;0.60;;;;;;;4.93;72.62;96433.00;29373;332;63009;-57
2021/05/06 03:24:32;;;;;;;0.60;0.60;;;;;;;4.90;73.24;96432.75;29371;196;64017;-57
2021/05/06 03:25:07;;;;;;;;;;;;;;;4.83;73.23;96434.91;29974;983;28000;-57
2021/05/06 03:25:38;;;;;;;0.60;0.60;;;;;;;4.82;73.76;96425.22;29400;329;63009;-57
2021/05/06 03:26:12;;;;;;;0.60;0.60;;;;;;;4.81;73.72;96429.00;29373;288;63004;-57
2021/05/06 03:26:44;;;;;;;0.70;0.70;;;;;;;4.75;73.71;96435.44;29373;197;63008;-57
2021/05/06 03:27:16;;;;;;;0.50;0.50;;;;;;;4.70;74.19;96428.97;29371;295;64004;-55
2021/05/06 03:27:54;;;;;;;0.70;0.70;;;;;;;4.65;74.71;96420.91;29373;354;63009;-56
2021/05/06 03:28:34;;;;;;;0.68;0.68;;;;;;;4.59;75.16;96424.66;29373;323;63005;-57
2021/05/06 03:29:11;;;;;;;0.60;0.60;;;;;;;4.61;75.37;96419.81;29373;257;63009;-57
2021/05/06 03:30:10;;;;;;;0.60;0.60;;;;;;;4.63;74.93;96417.66;29373;204;63005;-55
2021/05/06 03:32:08;;;;;;;0.60;0.60;;;;;;;4.64;74.02;96408.53;29373;297;63004;-56
2021/05/06 03:33:00;;;;;;;0.60;0.60;;;;;;;4.55;74.59;96404.75;29373;336;63009;-58
2021/05/06 03:34:40;;;;;;;0.60;0.60;;;;;;;4.49;75.93;96397.78;29373;247;63008;-56
2021/05/06 03:35:17;;;;;;;0.60;0.60;;;;;;;4.43;75.85;96387.28;29393;256;64005;-56
2021/05/06 03:36:15;;;;;;;0.60;0.60;;;;;;;4.39;76.16;96381.63;29395;222;63009;-56
2021/05/06 03:42:05;;;;;;;0.60;0.60;;;;;;;4.07;78.61;96375.63;29373;210;63004;-55
2021/05/06 03:44:46;;;;;;;0.70;0.70;;;;;;;3.99;80.26;96363.53;29373;275;63009;-54
2021/05/06 03:49:28;;;;;;;0.68;0.68;;;;;;;3.81;80.26;96370.16;29373;205;63004;-56
2021/05/06 04:17:58;;;;;;;0.60;0.60;;;;;;;3.80;81.03;96336.38;29373;227;63009;-55
2021/05/06 04:18:34;;;;;;;0.70;0.70;;;;;;;3.81;81.12;96339.88;29373;201;63004;-57
2021/05/06 04:21:27;;;;;;;0.65;0.65;;;;;;;3.81;81.67;96337.97;29373;196;63008;-54
2021/05/06 04:25:48;;;;;;;0.70;0.70;;;;;;;3.69;81.67;96326.66;29373;231;63004;-57
2021/05/06 04:26:36;;;;;;;0.70;0.70;;;;;;;3.74;81.28;96323.19;29395;202;63008;-56
2021/05/06 04:27:21;;;;;;;0.68;0.68;;;;;;;3.76;81.04;96321.88;29395;255;63005;-57
2021/05/06 04:28:05;;;;;;;0.70;0.70;;;;;;;3.77;80.90;96320.81;29371;216;64009;-56
2021/05/06 04:37:08;;;;;;;0.70;0.70;;;;;;;3.87;81.01;96315.44;29395;206;63009;-56
2021/05/06 04:37:43;;;;;;;0.60;0.60;;;;;;;3.86;81.16;96311.16;29373;214;63005;-57
2021/05/06 04:38:17;;;;;;;0.60;0.60;;;;;;;3.91;80.80;96313.84;29373;203;63009;-56
2021/05/06 04:38:48;;;;;;;0.70;0.70;;;;;;;3.92;80.77;96310.09;29373;305;63004;-57
2021/05/06 04:39:31;;;;;;;0.60;0.60;;;;;;;3.94;80.59;96318.69;29371;228;64009;-56
2021/05/06 04:40:14;;;;;;;0.60;0.60;;;;;;;3.94;80.27;96312.50;29373;198;63004;-56
2021/05/06 04:41:08;;;;;;;0.68;0.68;;;;;;;3.94;80.33;96310.63;29373;204;63009;-56
2021/05/06 04:41:53;;;;;;;0.68;0.68;;;;;;;3.96;80.26;96303.13;29395;236;63004;-56
2021/05/06 04:43:10;;;;;;;0.70;0.70;;;;;;;3.97;80.30;96312.78;29395;233;63009;-58
2021/05/06 04:46:01;;;;;;;0.70;0.70;;;;;;;4.13;79.72;96316.34;29373;209;63005;-57
2021/05/06 04:46:42;;;;;;;0.68;0.68;;;;;;;4.15;79.29;96310.69;29373;256;63009;-54
2021/05/06 04:54:33;;;;;;;0.70;0.70;;;;;;;4.33;78.20;96310.16;29373;219;63004;-57
2021/05/06 04:55:12;;;;;;;0.70;0.70;;;;;;;4.36;78.04;96309.63;29373;219;63009;-56
2021/05/06 04:55:51;;;;;;;0.70;0.70;;;;;;;4.38;77.77;96312.87;29373;196;63004;-57
2021/05/06 04:57:40;;;;;;;0.70;0.70;;;;;;;4.40;77.98;96310.72;29371;223;64005;-56
2021/05/06 05:04:44;;;;;;;0.60;0.60;;;;;;;4.43;77.71;96314.75;29373;220;63005;-57
2021/05/06 05:05:19;;;;;;;0.62;0.62;;;;;;;4.42;77.78;96305.88;29373;222;63009;-56
2021/05/06 05:05:50;;;;;;;0.60;0.60;;;;;;;4.45;77.66;96316.09;29373;230;63005;-57
2021/05/06 05:06:26;;;;;;;0.70;0.70;;;;;;;4.47;77.64;96311.28;29371;223;64009;-57
2021/05/06 05:08:07;;;;;;;0.60;0.60;;;;;;;4.56;77.07;96311.53;29373;212;63016;-57
2021/05/06 05:11:31;;;;;;;0.60;0.60;;;;;;;4.69;76.46;96313.69;29373;222;63004;-57
2021/05/06 05:13:55;;;;;;;0.70;0.70;;;;;;;4.76;75.72;96310.72;29373;200;63010;-57
2021/05/06 05:18:00;;;;;;;0.70;0.70;;;;;;;4.75;76.55;96317.19;29371;344;64009;-56
2021/05/06 05:18:47;;;;;;;0.60;0.60;;;;;;;4.82;76.74;96304.28;29373;325;63004;-57
2021/05/06 05:20:36;;;;;;;0.70;0.70;;;;;;;4.89;75.53;96307.47;29373;339;63005;-54
2021/05/06 05:24:44;;;;;;;0.60;0.60;;;;;;;4.70;76.29;96302.66;29415;211;64009;-57
2021/05/06 05:26:14;;;;;;;0.60;0.60;;;;;;;4.76;75.98;96308.03;29373;293;63008;-57
2021/05/06 05:26:46;;;;;;;0.68;0.68;;;;;;;4.74;76.23;96299.44;29373;242;63005;-56
2021/05/06 05:27:22;;;;;;;0.60;0.60;;;;;;;4.75;76.69;96306.41;29373;205;63009;-57
2021/05/06 05:28:03;;;;;;;0.60;0.60;;;;;;;4.72;76.87;96300.50;29371;331;64005;-57
2021/05/06 05:28:34;;;;;;;0.60;0.60;;;;;;;4.72;76.74;96300.50;29373;247;63009;-57
2021/05/06 05:29:06;;;;;;;0.70;0.70;;;;;;;4.75;76.31;96304.53;29373;226;63005;-57
2021/05/06 05:29:37;;;;;;;0.60;0.60;;;;;;;4.72;76.77;96308.56;29373;243;63009;-57
2021/05/06 05:30:10;;;;;;;0.70;0.70;;;;;;;4.72;76.65;96302.38;29373;197;63016;-56
2021/05/06 05:30:41;;;;;;;0.60;0.60;;;;;;;4.74;76.11;96300.25;29373;280;63009;-57
2021/05/06 05:31:16;;;;;;;0.60;0.60;;;;;;;4.76;75.96;96297.28;29373;202;63004;-57
2021/05/06 05:31:48;;;;;;;0.60;0.60;;;;;;;4.77;75.67;96296.22;29373;366;63009;-57
2021/05/06 05:32:20;;;;;;;0.60;0.60;;;;;;;4.78;75.64;96298.63;29373;232;63004;-56
2021/05/06 05:32:52;;;;;;;0.60;0.60;;;;;;;4.79;75.50;96297.56;29371;373;64021;-57
2021/05/06 05:33:25;;;;;;;0.60;0.60;;;;;;;4.80;75.41;96298.38;29373;202;63004;-56
2021/05/06 05:34:05;;;;;;;0.60;0.60;;;;;;;4.78;76.48;96298.63;29373;215;63008;-58
2021/05/06 05:34:40;;;;;;;0.60;0.60;;;;;;;4.77;76.47;96299.72;29373;222;63005;-56
2021/05/06 05:35:17;;;;;;;0.60;0.60;;;;;;;4.83;75.82;96297.81;29373;316;63009;-57
2021/05/06 05:36:40;;;;;;;0.60;0.60;;;;;;;4.96;75.08;96287.31;29393;331;64009;-57
2021/05/06 05:37:18;;;;;;;0.60;0.60;;;;;;;4.98;74.56;96290.53;29394;197;64005;-57
2021/05/06 05:38:19;;;;;;;0.60;0.60;;;;;;;5.00;74.49;96283.00;29373;291;63009;-56
2021/05/06 05:39:00;;;;;;;0.70;0.70;;;;;;;4.99;74.18;96285.94;29373;295;63004;-57
2021/05/06 05:39:43;;;;;;;0.60;0.60;;;;;;;5.00;74.55;96287.56;29393;213;64009;-57
2021/05/06 05:40:22;;;;;;;0.60;0.60;;;;;;;5.01;74.21;96289.19;29395;209;63004;-57
2021/05/06 05:42:56;;;;;;;0.60;0.60;;;;;;;5.02;74.70;96290.78;29395;198;63009;-57
2021/05/06 05:43:59;;;;;;;0.60;0.60;;;;;;;5.00;75.33;96284.88;29394;290;64005;-58
2021/05/06 05:47:28;;;;;;;0.62;0.62;;;;;;;5.10;74.62;96286.75;29373;202;63004;-56
2021/05/06 05:48:42;;;;;;;0.70;0.70;;;;;;;5.11;74.71;96283.78;29393;228;64009;-56
2021/05/06 05:54:46;;;;;;;0.70;0.70;;;;;;;5.12;75.07;96285.41;29373;202;63009;-56
2021/05/06 05:55:17;;;;;;;0.70;0.70;;;;;;;5.11;75.24;96282.97;29371;206;64004;-56
2021/05/06 05:55:49;;;;;;;0.60;0.60;;;;;;;5.07;75.50;96282.72;29373;356;63009;-57
2021/05/06 05:56:20;;;;;;;0.60;0.60;;;;;;;5.05;75.23;96285.69;29373;247;63004;-56
2021/05/06 05:56:54;;;;;;;0.60;0.60;;;;;;;5.04;75.28;96284.06;29373;289;63009;-57
2021/05/06 05:57:25;;;;;;;0.60;0.60;;;;;;;5.05;75.36;96290.25;29373;242;63005;-56
2021/05/06 05:57:56;;;;;;;0.60;0.60;;;;;;;5.05;75.18;96287.56;29373;285;63009;-57
2021/05/06 05:58:28;;;;;;;0.60;0.60;;;;;;;5.08;75.05;96289.72;29371;197;64005;-57
2021/05/06 05:58:59;;;;;;;0.60;0.60;;;;;;;5.11;74.96;96288.34;29373;349;63009;-56
2021/05/06 05:59:30;;;;;;;0.60;0.60;;;;;;;5.09;74.81;96285.94;29373;321;63005;-56
2021/05/06 06:00:04;;;;;;;0.62;0.62;;;;;;;5.07;75.03;96288.09;29373;233;63009;-58